Time;durP1;ratioP1;P1;durP2;ratioP2;P2;SDS_P1;SDS_P2;PMS_P1;PMS_P2;Temp;Humidity;BMP_temperature;BMP_pressure;BME280_temperature;BME280_humidity;BME280_pressure;Samples;Min_cycle;Max_cycle;Signal;HPM_P1;HPM_P2
2022/06/23 00:01:54;;;;;;;0.08;0.08;;;;;;;20.39;58.20;101355.22;5053849;28;20402;-73
2022/06/23 00:04:24;;;;;;;0.00;0.00;;;;;;;20.28;59.69;101367.41;5058769;28;20032;-73
2022/06/23 00:17:43;;;;;;;0.00;0.00;;;;;;;20.20;59.13;101362.44;5153408;27;20776;-74
2022/06/23 00:20:18;;;;;;;0.03;0.03;;;;;;;20.19;58.81;101352.63;5153286;27;20022;-73
2022/06/23 00:22:49;;;;;;;0.20;0.20;;;;;;;20.14;58.67;101359.22;5145541;27;20027;-73
2022/06/23 00:25:55;;;;;;;0.00;0.00;;;;;;;20.19;58.72;101349.09;5139805;27;20024;-73
2022/06/23 00:28:30;;;;;;;0.10;0.10;;;;;;;20.13;58.83;101346.72;5143707;27;20041;-74
2022/06/23 00:31:01;;;;;;;0.00;0.00;;;;;;;20.08;59.25;101340.72;5137261;27;20056;-73
2022/06/23 00:33:37;;;;;;;0.52;0.52;;;;;;;20.02;59.64;101340.06;5135448;27;20053;-74
2022/06/23 00:36:26;;;;;;;0.17;0.17;;;;;;;20.01;58.81;101343.72;5137046;27;20106;-73
2022/06/23 00:38:53;;;;;;;0.17;0.17;;;;;;;19.92;58.74;101338.78;5139942;27;20035;-73
2022/06/23 00:41:26;;;;;;;0.13;0.13;;;;;;;19.90;58.63;101331.75;5139151;27;20088;-73
2022/06/23 00:43:53;;;;;;;0.00;0.00;;;;;;;19.87;58.75;101328.28;5145515;27;20418;-73
2022/06/23 00:46:34;;;;;;;0.00;0.00;;;;;;;19.88;59.19;101331.84;5148021;27;20405;-73
2022/06/23 00:49:23;;;;;;;0.00;0.00;;;;;;;19.81;59.93;101335.75;5135514;27;20561;-73
2022/06/23 00:51:54;;;;;;;0.10;0.10;;;;;;;19.78;59.77;101341.31;5140561;27;20035;-73
2022/06/23 00:54:32;;;;;;;0.05;0.05;;;;;;;19.78;59.25;101335.94;5147156;27;20742;-73
2022/06/23 00:57:16;;;;;;;0.80;0.40;;;;;;;19.76;59.04;101322.53;5137171;27;20042;-73
2022/06/23 00:59:50;;;;;;;0.00;0.00;;;;;;;19.68;59.81;101325.63;5145067;27;20030;-73
2022/06/23 01:02:23;;;;;;;0.00;0.00;;;;;;;19.66;60.25;101334.72;5142366;27;20018;-73
2022/06/23 01:05:16;;;;;;;0.10;0.10;;;;;;;19.70;59.34;101329.13;5144301;27;20042;-73
2022/06/23 01:07:59;;;;;;;0.00;0.00;;;;;;;19.66;59.99;101326.66;5135451;27;20046;-73
2022/06/23 01:13:47;;;;;;;0.00;0.00;;;;;;;19.60;59.85;101324.28;5090075;28;20352;-73
2022/06/23 01:16:26;;;;;;;0.00;0.00;;;;;;;19.53;60.46;101321.91;5087580;28;20025;-72
2022/06/23 01:19:16;;;;;;;0.00;0.00;;;;;;;19.51;60.03;101322.91;5080857;28;20028;-72
2022/06/23 01:21:47;;;;;;;0.00;0.00;;;;;;;19.49;59.69;101327.50;5085268;28;20029;-73
2022/06/23 01:24:33;;;;;;;0.00;0.00;;;;;;;19.46;60.19;101325.84;5082276;28;20453;-74
2022/06/23 01:29:57;;;;;;;0.10;0.10;;;;;;;19.44;59.92;101332.22;5109675;27;20402;-73
2022/06/23 01:32:29;;;;;;;0.00;0.00;;;;;;;19.40;59.98;101327.03;5088325;28;20719;-73
2022/06/23 01:35:18;;;;;;;0.65;0.65;;;;;;;19.44;60.07;101338.50;5085900;28;20051;-73
2022/06/23 01:37:53;;;;;;;0.00;0.00;;;;;;;19.38;60.01;101333.41;5087976;28;20021;-72
2022/06/23 01:43:20;;;;;;;0.00;0.00;;;;;;;19.37;60.38;101340.59;5105986;27;20419;-73
2022/06/23 01:46:01;;;;;;;0.10;0.10;;;;;;;19.34;60.19;101335.38;5106688;28;20084;-74
2022/06/23 01:54:16;;;;;;;0.10;0.10;;;;;;;19.34;60.23;101327.31;5086992;27;20435;-73
2022/06/23 01:59:55;;;;;;;0.00;0.00;;;;;;;19.31;59.95;101319.41;5109018;27;20403;-73
2022/06/23 02:10:39;;;;;;;0.05;0.05;;;;;;;19.22;59.92;101326.09;5105343;27;20405;-73
2022/06/23 02:13:17;;;;;;;0.57;0.57;;;;;;;19.14;60.03;101325.63;5100256;28;20043;-73
2022/06/23 02:19:04;;;;;;;0.08;0.08;;;;;;;19.12;60.39;101315.91;5118232;27;20442;-72
2022/06/23 02:24:44;;;;;;;0.10;0.10;;;;;;;19.13;59.85;101314.94;5068130;28;20880;-73
2022/06/23 02:30:02;;;;;;;0.47;0.47;;;;;;;19.07;59.93;101313.44;5067530;28;20400;-73
2022/06/23 02:32:59;;;;;;;0.00;0.00;;;;;;;19.07;60.33;101311.59;5044681;28;20033;-73
2022/06/23 02:44:04;;;;;;;0.05;0.05;;;;;;;19.01;60.50;101311.03;5014251;28;20755;-72
2022/06/23 02:49:46;;;;;;;0.10;0.10;;;;;;;19.03;60.39;101307.31;5106082;27;20766;-73
2022/06/23 02:52:52;;;;;;;0.00;0.00;;;;;;;19.06;60.46;101300.94;5112682;28;20032;-72
2022/06/23 02:58:30;;;;;;;0.00;0.00;;;;;;;19.02;60.63;101310.94;5064472;28;20419;-73
2022/06/23 03:01:06;;;;;;;0.10;0.10;;;;;;;19.01;60.15;101305.66;5069693;28;20429;-73
2022/06/23 03:03:45;;;;;;;0.00;0.00;;;;;;;19.01;60.57;101300.28;5072449;28;20063;-73
2022/06/23 03:06:37;;;;;;;0.28;0.28;;;;;;;19.05;60.81;101289.34;5062815;28;20075;-73
2022/06/23 03:20:18;;;;;;;0.28;0.28;;;;;;;19.03;60.08;101284.97;5092765;28;20335;-73
2022/06/23 03:22:54;;;;;;;0.10;0.10;;;;;;;19.00;60.82;101277.91;5057025;28;20033;-73
2022/06/23 03:25:29;;;;;;;0.10;0.10;;;;;;;19.01;60.83;101276.97;5070879;28;20025;-73
2022/06/23 03:33:50;;;;;;;0.10;0.10;;;;;;;19.04;60.45;101279.53;5066370;28;20781;-74
2022/06/23 03:36:41;;;;;;;0.10;0.10;;;;;;;19.02;60.34;101283.25;5070483;28;20410;-73
2022/06/23 03:42:28;;;;;;;0.00;0.00;;;;;;;19.07;59.94;101265.94;5061519;28;20090;-73
2022/06/23 03:45:04;;;;;;;0.00;0.00;;;;;;;18.96;60.08;101267.44;5070309;28;20109;-73
2022/06/23 03:50:34;;;;;;;0.10;0.10;;;;;;;18.89;61.19;101266.81;5063294;28;20418;-73
2022/06/23 03:53:08;;;;;;;0.00;0.00;;;;;;;18.87;60.96;101263.34;5043493;28;20473;-72
2022/06/23 03:55:45;;;;;;;0.00;0.00;;;;;;;18.88;60.79;101268.63;5050687;28;20376;-73
2022/06/23 03:58:34;;;;;;;0.43;0.43;;;;;;;18.91;60.93;101264.94;5052708;28;20025;-73
2022/06/23 04:01:07;;;;;;;0.00;0.00;;;;;;;18.88;60.07;101260.56;5046217;28;20025;-73
2022/06/23 04:06:38;;;;;;;0.00;0.00;;;;;;;18.89;60.26;101239.94;5107151;27;20403;-73
2022/06/23 04:09:18;;;;;;;0.00;0.00;;;;;;;18.89;60.71;101250.69;5107653;28;20031;-73
2022/06/23 04:17:25;;;;;;;0.00;0.00;;;;;;;18.91;60.68;101264.94;5055276;28;20408;-73
2022/06/23 04:19:59;;;;;;;0.10;0.10;;;;;;;18.91;60.89;101255.06;5056751;28;20039;-73
2022/06/23 04:25:10;;;;;;;0.00;0.00;;;;;;;18.91;61.45;101248.84;5070338;28;20811;-73
2022/06/23 04:27:44;;;;;;;0.03;0.03;;;;;;;18.91;60.80;101244.34;5058963;28;20452;-73
2022/06/23 04:30:25;;;;;;;0.55;0.55;;;;;;;18.96;61.31;101241.44;5054478;28;20123;-73
2022/06/23 04:32:54;;;;;;;0.03;0.03;;;;;;;18.95;60.81;101242.38;5033890;28;20091;-73
2022/06/23 04:35:27;;;;;;;0.28;0.20;;;;;;;18.96;60.88;101246.81;5033925;28;20517;-72
2022/06/23 04:43:36;;;;;;;0.17;0.17;;;;;;;19.12;61.58;101252.28;5051685;28;20414;-72
2022/06/23 04:46:14;;;;;;;0.30;0.30;;;;;;;19.15;61.54;101256.63;5041622;28;20029;-73
2022/06/23 04:51:26;;;;;;;0.00;0.00;;;;;;;19.26;60.58;101261.50;5028133;28;20418;-73
2022/06/23 04:56:42;;;;;;;0.00;0.00;;;;;;;19.31;61.06;101265.66;5108382;27;20358;-73
2022/06/23 05:02:11;;;;;;;0.10;0.10;;;;;;;19.42;60.83;101258.91;5082830;27;20408;-73
2022/06/23 05:04:42;;;;;;;0.00;0.00;;;;;;;19.46;60.32;101263.16;5086095;28;20047;-73
2022/06/23 05:07:41;;;;;;;0.00;0.00;;;;;;;19.55;60.48;101260.88;5087534;28;20024;-72
2022/06/23 05:10:23;;;;;;;0.00;0.00;;;;;;;19.55;60.54;101246.56;5075076;28;20437;-75
2022/06/23 05:12:54;;;;;;;0.40;0.40;;;;;;;19.56;60.84;101254.56;5080391;28;20029;-73
2022/06/23 05:15:28;;;;;;;0.00;0.00;;;;;;;19.60;60.51;101257.97;5075093;28;20031;-73
2022/06/23 05:18:00;;;;;;;0.50;0.17;;;;;;;19.63;60.86;101260.50;5086078;28;20389;-73
2022/06/23 05:20:39;;;;;;;0.47;0.20;;;;;;;19.66;60.79;101267.53;5081823;28;20024;-73
2022/06/23 05:23:14;;;;;;;3.38;1.80;;;;;;;19.67;60.70;101269.25;5075053;28;20033;-72
2022/06/23 05:25:46;;;;;;;0.00;0.00;;;;;;;19.73;60.78;101269.81;5085146;28;20039;-73
2022/06/23 05:28:21;;;;;;;0.00;0.00;;;;;;;19.80;60.73;101273.06;5093999;28;20040;-73
2022/06/23 05:30:52;;;;;;;0.00;0.00;;;;;;;19.85;60.43;101271.03;5089747;28;20100;-72
2022/06/23 05:33:24;;;;;;;0.40;0.40;;;;;;;19.91;60.25;101266.28;5072811;28;20046;-73
2022/06/23 05:35:54;;;;;;;0.05;0.05;;;;;;;19.92;60.18;101260.81;5087465;28;20039;-73
2022/06/23 05:38:51;;;;;;;0.10;0.10;;;;;;;20.00;60.39;101253.22;5085250;28;20115;-73
2022/06/23 05:43:56;;;;;;;0.30;0.30;;;;;;;20.10;60.36;101255.41;5108277;27;20384;-72
2022/06/23 05:46:28;;;;;;;6.30;0.63;;;;;;;20.13;60.41;101255.25;5107456;28;20081;-72
2022/06/23 05:49:11;;;;;;;0.82;0.82;;;;;;;20.24;59.89;101247.47;5105336;28;20036;-72
2022/06/23 06:00:26;;;;;;;0.00;0.00;;;;;;;20.45;58.79;101244.53;5112915;27;20505;-73
2022/06/23 06:05:37;;;;;;;0.00;0.00;;;;;;;20.57;58.50;101264.53;5097896;27;20428;-73
2022/06/23 06:08:11;;;;;;;0.38;0.38;;;;;;;20.61;58.56;101258.03;5085917;28;20103;-73
2022/06/23 06:10:38;;;;;;;0.28;0.28;;;;;;;20.64;58.16;101276.72;5081917;28;20040;-73
2022/06/23 06:13:12;;;;;;;0.00;0.00;;;;;;;20.67;58.29;101261.25;5071652;28;20025;-73
2022/06/23 06:15:44;;;;;;;1.25;1.25;;;;;;;20.75;58.24;101251.88;5072639;28;20112;-73
2022/06/23 06:18:19;;;;;;;0.70;0.70;;;;;;;20.80;58.30;101249.84;5062405;28;20111;-74
2022/06/23 06:20:46;;;;;;;0.73;0.73;;;;;;;20.83;58.04;101245.09;5063961;28;20031;-74
2022/06/23 06:23:30;;;;;;;0.08;0.08;;;;;;;20.93;57.99;101229.28;5060442;28;20058;-75
2022/06/23 06:25:57;;;;;;;0.05;0.05;;;;;;;20.99;57.97;101236.16;5066385;28;20078;-75
2022/06/23 06:28:28;;;;;;;0.20;0.20;;;;;;;21.06;57.39;101236.66;5065019;28;20040;-75
2022/06/23 06:31:32;;;;;;;0.10;0.10;;;;;;;21.14;57.35;101231.72;5062670;28;20033;-75
2022/06/23 06:36:45;;;;;;;0.20;0.20;;;;;;;21.28;56.72;101229.09;5110823;27;20412;-75
2022/06/23 06:39:36;;;;;;;0.00;0.00;;;;;;;21.42;57.07;101230.06;5104699;28;20028;-74
2022/06/23 06:42:11;;;;;;;0.10;0.10;;;;;;;21.46;56.85;101226.25;5100935;28;20028;-73
2022/06/23 06:44:44;;;;;;;0.08;0.08;;;;;;;21.51;56.88;101226.84;5107663;28;20042;-73
2022/06/23 06:47:17;;;;;;;0.03;0.03;;;;;;;21.56;56.09;101215.78;5104170;28;20023;-74
2022/06/23 06:49:45;;;;;;;0.00;0.00;;;;;;;21.58;55.74;101213.88;5101411;28;20040;-74
2022/06/23 06:52:13;;;;;;;0.32;0.32;;;;;;;21.68;55.74;101214.19;5100507;28;20543;-74
2022/06/23 06:54:46;;;;;;;0.10;0.10;;;;;;;21.79;55.74;101223.38;5095619;28;20106;-74
2022/06/23 06:57:23;;;;;;;0.20;0.20;;;;;;;21.92;55.46;101234.28;5097552;28;20068;-75
2022/06/23 07:02:34;;;;;;;0.10;0.10;;;;;;;22.07;55.16;101226.16;5091481;27;20417;-75
2022/06/23 07:05:18;;;;;;;0.10;0.10;;;;;;;22.16;55.03;101228.31;5089410;28;20043;-76
2022/06/23 07:07:48;;;;;;;0.77;0.77;;;;;;;22.22;55.11;101230.63;5099238;28;20604;-75
2022/06/23 07:10:29;;;;;;;0.03;0.03;;;;;;;22.36;54.67;101236.97;5108193;28;20084;-75
2022/06/23 07:13:00;;;;;;;0.00;0.00;;;;;;;22.40;54.81;101238.53;5103456;28;20035;-75
2022/06/23 07:24:02;;;;;;;0.00;0.00;;;;;;;22.84;53.98;101236.63;5061663;28;20412;-77
2022/06/23 07:29:28;;;;;;;0.85;0.57;;;;;;;23.01;53.24;101232.81;5108089;27;20392;-77
2022/06/23 07:34:37;;;;;;;0.15;0.15;;;;;;;23.15;53.24;101224.63;5156414;27;20457;-76
2022/06/23 07:37:21;;;;;;;0.10;0.10;;;;;;;23.20;52.43;101227.06;5164196;27;20030;-75
2022/06/23 07:39:53;;;;;;;0.25;0.25;;;;;;;23.34;52.43;101227.00;5156708;27;20027;-76
2022/06/23 07:42:38;;;;;;;0.75;0.30;;;;;;;23.45;52.61;101226.25;5142100;27;21441;-75
2022/06/23 07:45:17;;;;;;;0.00;0.00;;;;;;;23.54;52.56;101222.94;5133145;27;20569;-75
2022/06/23 07:47:43;;;;;;;0.05;0.05;;;;;;;23.65;52.71;101221.31;5140254;27;20031;-75
2022/06/23 07:50:11;;;;;;;0.10;0.10;;;;;;;23.79;52.21;101223.06;5138356;27;20137;-75
2022/06/23 07:52:37;;;;;;;0.05;0.05;;;;;;;23.88;52.39;101223.28;5136783;27;20035;-75
2022/06/23 07:55:05;;;;;;;0.10;0.10;;;;;;;24.00;51.97;101220.72;5138144;27;20030;-75
2022/06/23 07:57:33;;;;;;;0.00;0.00;;;;;;;24.05;51.26;101223.94;5135832;27;20031;-76
2022/06/23 08:00:06;;;;;;;0.10;0.10;;;;;;;24.12;50.99;101217.13;5136839;27;20031;-76
2022/06/23 08:02:43;;;;;;;0.20;0.20;;;;;;;24.28;50.79;101213.34;5158235;27;20027;-76
2022/06/23 08:05:17;;;;;;;0.00;0.00;;;;;;;24.40;50.83;101217.88;5137247;27;20027;-76
2022/06/23 08:07:44;;;;;;;0.20;0.20;;;;;;;24.46;50.91;101227.38;5137290;27;20027;-76
2022/06/23 08:10:16;;;;;;;0.10;0.10;;;;;;;24.60;50.47;101219.13;5136633;27;20027;-76
2022/06/23 08:12:53;;;;;;;;;;;;;;;24.85;50.06;101220.91;5133726;27;20035;-76
2022/06/23 08:18:16;;;;;;;0.00;0.00;;;;;;;24.97;49.44;101219.13;5093620;27;20395;-74
2022/06/23 08:20:51;;;;;;;0.20;0.20;;;;;;;25.08;49.17;101221.00;5068520;28;20490;-76
2022/06/23 08:23:20;;;;;;;0.00;0.00;;;;;;;25.13;49.14;101202.53;5067906;28;20138;-75
2022/06/23 08:25:47;;;;;;;0.28;0.28;;;;;;;25.24;49.02;101204.44;5063149;28;20294;-75
2022/06/23 08:28:14;;;;;;;1.02;0.93;;;;;;;25.29;49.15;101199.53;5057924;28;20040;-75
2022/06/23 08:30:41;;;;;;;1.08;0.98;;;;;;;25.40;49.21;101198.72;5056529;28;20498;-75
2022/06/23 08:33:10;;;;;;;1.23;1.13;;;;;;;25.56;49.01;101198.41;5054699;28;20036;-74
2022/06/23 08:35:42;;;;;;;0.03;0.03;;;;;;;25.73;49.69;101207.91;5066744;28;20033;-74
2022/06/23 08:38:16;;;;;;;2.90;2.40;;;;;;;25.86;48.28;101196.09;5078163;28;20510;-75
2022/06/23 08:43:52;;;;;;;2.03;0.73;;;;;;;26.22;48.06;101186.00;5041067;27;20442;-75
2022/06/23 08:46:31;;;;;;;0.03;0.03;;;;;;;26.30;48.13;101188.97;5039156;28;20112;-74
2022/06/23 08:49:22;;;;;;;0.52;0.30;;;;;;;26.44;48.10;101180.59;5041227;28;20522;-74
2022/06/23 08:52:03;;;;;;;1.88;0.68;;;;;;;26.51;47.69;101180.94;5044404;28;20076;-74
2022/06/23 08:54:44;;;;;;;0.00;0.00;;;;;;;26.58;47.78;101179.44;5031085;28;20575;-73
2022/06/23 08:57:24;;;;;;;0.10;0.10;;;;;;;26.69;47.51;101178.53;5042971;28;20033;-73
2022/06/23 09:02:59;;;;;;;0.00;0.00;;;;;;;26.93;47.55;101174.78;5100062;27;20360;-75
2022/06/23 09:08:26;;;;;;;0.17;0.17;;;;;;;27.09;48.40;101174.34;5108395;27;20391;-75
2022/06/23 09:11:19;;;;;;;0.00;0.00;;;;;;;27.30;47.46;101174.34;5107472;28;20070;-75
2022/06/23 09:14:25;;;;;;;0.15;0.15;;;;;;;27.43;46.45;101175.06;5108314;28;20062;-74
2022/06/23 09:33:43;;;;;;;0.05;0.05;;;;;;;28.23;46.32;101169.91;5088321;28;20332;-74
2022/06/23 09:44:26;;;;;;;0.30;0.25;;;;;;;28.73;46.03;101158.13;5088115;27;20393;-74
2022/06/23 09:47:18;;;;;;;0.25;0.25;;;;;;;28.89;46.03;101153.97;5086561;28;20074;-75
2022/06/23 09:50:01;;;;;;;1.08;0.88;;;;;;;28.95;45.33;101152.53;5086997;28;20519;-74
2022/06/23 09:52:55;;;;;;;0.20;0.20;;;;;;;29.08;46.35;101155.00;5066974;28;20060;-74
2022/06/23 09:58:26;;;;;;;0.10;0.10;;;;;;;29.29;46.17;101155.69;5108571;27;20384;-75
2022/06/23 10:06:41;;;;;;;0.10;0.10;;;;;;;29.61;45.35;101145.44;5068328;28;21048;-74
2022/06/23 10:09:35;;;;;;;0.20;0.20;;;;;;;29.74;44.72;101142.38;5067737;28;20045;-75
2022/06/23 10:37:29;;;;;;;0.10;0.10;;;;;;;30.74;43.13;101126.19;5067663;28;20394;-74
2022/06/23 10:45:57;;;;;;;0.15;0.15;;;;;;;30.92;41.69;101121.56;5108604;27;20381;-74
2022/06/23 10:48:44;;;;;;;0.05;0.05;;;;;;;31.00;40.69;101111.72;5108364;28;20104;-75
2022/06/23 11:02:43;;;;;;;0.65;0.47;;;;;;;31.51;40.46;101099.09;5067100;28;20386;-74
2022/06/23 11:13:26;;;;;;;0.10;0.10;;;;;;;31.70;40.54;101091.69;5108018;27;20395;-74
2022/06/23 11:21:41;;;;;;;0.00;0.00;;;;;;;32.00;39.76;101086.69;5107631;27;20181;-74
2022/06/23 11:24:27;;;;;;;;;;;;;;;32.02;41.59;101077.25;5108590;28;20120;-74
2022/06/23 11:35:27;;;;;;;0.00;0.00;;;;;;;32.68;38.79;101087.53;5068358;28;20406;-75
2022/06/23 11:38:24;;;;;;;0.10;0.10;;;;;;;32.84;37.55;101086.72;5067765;28;20049;-76
2022/06/23 11:46:46;;;;;;;0.20;0.20;;;;;;;33.36;36.43;101082.72;5065813;27;20436;-76
2022/06/23 11:49:36;;;;;;;0.30;0.30;;;;;;;33.60;36.99;101072.69;5065125;28;20115;-76
2022/06/23 11:52:30;;;;;;;0.28;0.28;;;;;;;33.38;36.42;101070.53;5064381;28;20040;-76
2022/06/23 11:55:25;;;;;;;0.20;0.20;;;;;;;33.29;37.29;101070.75;5065160;28;20081;-76
2022/06/23 11:58:31;;;;;;;1.27;1.20;;;;;;;33.07;38.48;101062.16;5064689;28;20032;-75
2022/06/23 12:01:21;;;;;;;0.20;0.20;;;;;;;32.92;37.10;101061.16;5064235;27;20032;-75
2022/06/23 12:12:23;;;;;;;0.47;0.47;;;;;;;32.88;38.59;101056.00;5128629;27;20382;-75
2022/06/23 12:14:51;;;;;;;0.17;0.17;;;;;;;32.76;38.80;101051.91;5129440;28;20031;-75
2022/06/23 12:20:16;;;;;;;0.10;0.10;;;;;;;33.10;37.56;101047.22;5109226;27;20380;-75
2022/06/23 12:34:18;;;;;;;0.00;0.00;;;;;;;33.23;39.26;101044.81;5108986;27;20387;-75
2022/06/23 12:37:07;;;;;;;0.10;0.10;;;;;;;33.31;37.98;101041.22;5105609;28;20154;-75
2022/06/23 12:39:58;;;;;;;1.52;0.52;;;;;;;33.38;35.96;101034.00;5103466;28;20043;-76
2022/06/23 12:42:49;;;;;;;0.20;0.20;;;;;;;33.64;36.61;101030.97;5073242;28;20552;-75
2022/06/23 12:48:21;;;;;;;0.25;0.25;;;;;;;34.12;36.64;101019.94;5093755;27;20411;-76
2022/06/23 12:51:27;;;;;;;0.22;0.22;;;;;;;34.19;36.29;101012.63;5074867;28;20044;-77
2022/06/23 12:54:11;;;;;;;0.05;0.05;;;;;;;34.44;36.40;101015.25;5083445;28;20101;-78
2022/06/23 12:59:57;;;;;;;0.73;0.73;;;;;;;34.67;35.75;101011.63;5080366;27;20417;-77
2022/06/23 13:02:37;;;;;;;1.13;1.02;;;;;;;34.79;33.74;101009.25;5057615;28;20064;-76
2022/06/23 13:05:29;;;;;;;0.20;0.20;;;;;;;34.86;33.94;101006.59;5057658;28;20526;-76
2022/06/23 13:08:25;;;;;;;0.20;0.20;;;;;;;34.89;34.38;101000.78;5051043;28;20108;-77
2022/06/23 13:10:59;;;;;;;8.68;1.45;;;;;;;34.76;34.12;100991.22;5053262;28;20056;-77
2022/06/23 13:16:13;;;;;;;0.10;0.10;;;;;;;34.90;33.90;100997.00;5089617;27;20405;-76
2022/06/23 13:19:05;;;;;;;0.40;0.40;;;;;;;34.95;34.14;100994.53;5109727;28;20046;-77
2022/06/23 13:21:34;;;;;;;0.10;0.10;;;;;;;34.86;34.05;100991.00;5105533;27;20038;-77
2022/06/23 13:30:00;;;;;;;0.00;0.00;;;;;;;35.27;34.48;100987.78;5079825;27;20406;-77
2022/06/23 13:32:54;;;;;;;1.10;1.10;;;;;;;35.40;34.41;100984.38;5066164;28;20106;-77
2022/06/23 13:38:22;;;;;;;0.00;0.00;;;;;;;35.50;32.23;100991.50;5102003;27;20786;-77
2022/06/23 13:41:01;;;;;;;0.73;0.73;;;;;;;35.51;31.89;100988.56;5097706;28;20039;-77
2022/06/23 13:49:18;;;;;;;0.10;0.10;;;;;;;35.17;33.63;100983.59;5091085;27;1197972;-79
2022/06/23 13:54:33;;;;;;;3.65;0.93;;;;;;;35.53;34.13;100983.72;5060573;28;20141;-78
2022/06/23 13:59:55;;;;;;;0.20;0.20;;;;;;;35.77;32.78;100968.72;5079911;27;1349581;-77
2022/06/23 14:05:29;;;;;;;0.35;0.35;;;;;;;35.95;32.75;100972.97;5099460;27;20428;-77
2022/06/23 14:08:08;;;;;;;0.17;0.17;;;;;;;35.87;30.91;100976.72;5081079;28;20039;-77
2022/06/23 14:16:12;;;;;;;0.00;0.00;;;;;;;36.51;31.42;100968.66;5095094;27;20403;-76
2022/06/23 14:18:53;;;;;;;0.20;0.20;;;;;;;36.66;31.41;100963.03;5116209;28;20385;-77
2022/06/23 14:27:08;;;;;;;0.10;0.10;;;;;;;36.99;29.69;100952.25;5064525;27;20418;-78
2022/06/23 14:30:01;;;;;;;0.30;0.30;;;;;;;36.99;29.74;100952.25;5059696;27;20074;-78
2022/06/23 14:38:05;;;;;;;0.00;0.00;;;;;;;37.05;29.39;100932.13;5092627;28;20671;-78
2022/06/23 14:46:38;;;;;;;0.10;0.10;;;;;;;37.20;30.31;100920.06;5111794;27;20462;-78
2022/06/23 14:54:36;;;;;;;0.20;0.20;;;;;;;37.29;29.09;100913.31;5109455;27;20902;-78
2022/06/23 15:00:15;;;;;;;0.20;0.20;;;;;;;37.11;28.95;100915.78;5107574;27;20414;-78
2022/06/23 15:05:43;;;;;;;0.00;0.00;;;;;;;37.17;28.14;100909.44;5083510;27;20930;-78
2022/06/23 15:10:56;;;;;;;0.10;0.10;;;;;;;37.23;28.13;100911.38;5041408;28;20806;-77
2022/06/23 15:24:56;;;;;;;0.17;0.17;;;;;;;37.62;27.66;100898.75;5101586;27;20027;-78
2022/06/23 15:27:48;;;;;;;0.08;0.08;;;;;;;37.71;28.66;100897.53;5106915;28;20118;-78
2022/06/23 15:30:21;;;;;;;0.28;0.25;;;;;;;37.77;26.17;100890.28;5098739;28;20049;-78
2022/06/23 15:33:13;;;;;;;0.47;0.38;;;;;;;37.93;26.43;100886.31;5105275;28;20408;-78
2022/06/23 15:35:53;;;;;;;0.10;0.10;;;;;;;37.95;27.67;100877.81;5097365;28;20066;-78
2022/06/23 15:43:55;;;;;;;0.20;0.20;;;;;;;38.03;26.95;100892.28;5056723;28;20418;-77
2022/06/23 15:46:35;;;;;;;0.00;0.00;;;;;;;38.06;26.33;100888.25;5049695;28;20039;-77
2022/06/23 15:49:10;;;;;;;0.05;0.05;;;;;;;38.08;26.05;100890.78;5045592;28;20035;-77
2022/06/23 15:51:44;;;;;;;0.13;0.13;;;;;;;38.16;25.40;100896.09;5043396;28;20029;-77
2022/06/23 15:54:35;;;;;;;0.03;0.03;;;;;;;38.30;26.33;100899.75;5045722;28;20033;-77
2022/06/23 15:57:06;;;;;;;;;;;;;;;38.43;26.62;100896.97;5047081;28;20411;-77
2022/06/23 15:59:57;;;;;;;0.00;0.00;;;;;;;38.36;27.20;100887.84;5047564;28;20378;-77
2022/06/23 16:02:43;;;;;;;;;;;;;;;38.33;26.76;100891.03;5045766;28;20021;-77
2022/06/23 16:05:22;;;;;;;0.25;0.25;;;;;;;38.22;26.04;100884.19;5050184;28;19944;-77
2022/06/23 16:08:04;;;;;;;0.00;0.00;;;;;;;38.35;26.41;100878.66;5050265;28;20049;-77
2022/06/23 16:10:42;;;;;;;0.20;0.20;;;;;;;38.31;25.32;100877.41;5049604;28;20034;-77
2022/06/23 16:13:17;;;;;;;1.15;0.45;;;;;;;38.42;25.79;100877.81;5047746;28;20499;-77
2022/06/23 16:15:47;;;;;;;1.75;0.68;;;;;;;38.41;27.13;100881.63;5045342;28;20036;-77
2022/06/23 16:18:23;;;;;;;4.28;0.40;;;;;;;38.30;26.12;100872.94;5046472;28;20040;-77
2022/06/23 16:21:12;;;;;;;0.25;0.25;;;;;;;38.42;25.76;100861.22;5045672;28;20410;-77
2022/06/23 16:26:25;;;;;;;0.28;0.28;;;;;;;38.52;26.25;100872.69;5087309;27;1875962;-77
2022/06/23 16:29:00;;;;;;;0.20;0.20;;;;;;;38.62;26.62;100873.09;5125506;27;20096;-78
2022/06/23 16:31:54;;;;;;;0.00;0.00;;;;;;;38.55;25.55;100872.25;5108600;28;20054;-78
2022/06/23 16:34:40;;;;;;;0.32;0.32;;;;;;;38.58;25.32;100865.44;5109364;28;20024;-77
2022/06/23 16:37:32;;;;;;;0.15;0.15;;;;;;;38.72;24.74;100866.25;5111091;28;20035;-77
2022/06/23 16:43:12;;;;;;;0.15;0.15;;;;;;;39.09;24.52;100858.28;5068316;28;20431;-77
2022/06/23 16:48:40;;;;;;;1.35;0.30;;;;;;;39.09;24.84;100849.97;5091930;27;20421;-77
2022/06/23 16:51:23;;;;;;;0.10;0.10;;;;;;;39.12;24.76;100855.06;5069435;28;20075;-77
2022/06/23 16:53:58;;;;;;;0.22;0.17;;;;;;;38.89;24.78;100848.13;5086094;28;20029;-77
2022/06/23 16:56:37;;;;;;;0.13;0.13;;;;;;;38.97;24.50;100845.13;5076476;28;20604;-77
2022/06/23 16:59:17;;;;;;;0.55;0.55;;;;;;;39.07;23.97;100841.00;5074912;28;20032;-77
2022/06/23 17:02:02;;;;;;;0.10;0.10;;;;;;;39.19;24.77;100844.78;5071557;28;20570;-77
2022/06/23 17:05:00;;;;;;;0.10;0.10;;;;;;;39.28;23.79;100840.72;5068631;28;20055;-77
2022/06/23 17:10:16;;;;;;;0.10;0.10;;;;;;;39.46;23.63;100828.03;5112194;27;20335;-78
2022/06/23 17:12:54;;;;;;;2.47;1.45;;;;;;;39.63;24.94;100833.91;5080434;28;20670;-77
2022/06/23 17:15:31;;;;;;;0.00;0.00;;;;;;;39.75;23.82;100825.72;5086432;28;20028;-77
2022/06/23 17:18:09;;;;;;;0.10;0.10;;;;;;;39.77;23.05;100820.81;5087447;28;20036;-77
2022/06/23 17:20:38;;;;;;;1.33;0.47;;;;;;;39.72;22.39;100824.25;5082614;28;20037;-78
2022/06/23 17:23:12;;;;;;;0.47;0.47;;;;;;;39.82;23.75;100826.53;5090441;28;20028;-77
2022/06/23 17:25:49;;;;;;;0.50;0.38;;;;;;;39.88;22.44;100833.94;5088130;28;20024;-77
2022/06/23 17:31:23;;;;;;;0.00;0.00;;;;;;;39.85;22.47;100833.53;5108649;27;20121;-77
2022/06/23 17:33:55;;;;;;;0.00;0.00;;;;;;;39.58;22.87;100836.47;5090034;28;20485;-77
2022/06/23 17:36:46;;;;;;;0.30;0.30;;;;;;;39.50;23.68;100834.84;5085027;28;20028;-77
2022/06/23 17:47:38;;;;;;;0.13;0.13;;;;;;;37.29;28.48;100862.75;5089196;27;20493;-77
2022/06/23 17:50:05;;;;;;;0.00;0.00;;;;;;;37.04;28.69;100866.03;5087507;28;20036;-77
2022/06/23 17:52:44;;;;;;;0.35;0.35;;;;;;;36.72;29.42;100860.94;5078322;28;20405;-77
2022/06/23 17:55:23;;;;;;;1.75;1.20;;;;;;;36.83;29.61;100859.53;5082678;28;20447;-77
2022/06/23 17:57:59;;;;;;;0.30;0.30;;;;;;;36.72;29.56;100862.88;5092290;28;20485;-77
2022/06/23 18:00:37;;;;;;;0.03;0.03;;;;;;;36.37;29.94;100860.94;5103242;28;20028;-77
2022/06/23 18:06:06;;;;;;;0.00;0.00;;;;;;;36.56;30.24;100847.47;5066373;28;20824;-77
2022/06/23 18:08:43;;;;;;;0.10;0.10;;;;;;;36.56;29.70;100847.47;5063487;28;20063;-77
2022/06/23 18:11:22;;;;;;;0.65;0.65;;;;;;;36.75;29.71;100846.75;5074560;28;20487;-77
2022/06/23 18:16:55;;;;;;;0.32;0.32;;;;;;;36.30;29.93;100853.66;5111380;27;20112;-78
2022/06/23 18:19:46;;;;;;;0.40;0.40;;;;;;;36.16;30.23;100858.22;5110985;28;20027;-78
2022/06/23 18:22:27;;;;;;;0.52;0.52;;;;;;;35.68;30.72;100862.44;5105293;28;20413;-77
2022/06/23 18:25:02;;;;;;;0.85;0.85;;;;;;;34.77;32.39;100871.84;5108389;28;20032;-77
2022/06/23 18:33:44;;;;;;;0.38;0.38;;;;;;;32.83;35.72;100899.28;5109225;27;20135;-77
2022/06/23 18:36:46;;;;;;;0.10;0.10;;;;;;;32.49;36.69;100900.34;5106084;28;20042;-77
2022/06/23 18:42:40;;;;;;;0.30;0.30;;;;;;;31.51;38.02;100901.09;5054711;28;20376;-77
2022/06/23 18:48:06;;;;;;;0.20;0.20;;;;;;;30.86;38.90;100897.88;5108125;27;20916;-77
2022/06/23 18:50:40;;;;;;;0.13;0.13;;;;;;;30.82;39.13;100896.50;5098670;28;20366;-77
2022/06/23 18:53:20;;;;;;;0.10;0.10;;;;;;;30.75;39.03;100895.44;5080174;28;20055;-76
2022/06/23 19:01:32;;;;;;;0.03;0.03;;;;;;;30.54;39.68;100896.66;5086141;27;20417;-77
2022/06/23 19:04:10;;;;;;;0.10;0.10;;;;;;;30.30;40.48;100903.63;5082870;28;20418;-77
2022/06/23 19:06:40;;;;;;;0.65;0.40;;;;;;;30.27;39.81;100903.09;5079327;28;20489;-77
2022/06/23 19:09:26;;;;;;;0.10;0.10;;;;;;;30.32;39.96;100896.16;5086140;28;20565;-77